sensor_id;sensor_type;location;lat;lon;timestamp;temperature;humidity
11136;DHT22;5622;50.840;4.948;2023-01-19T00:01:00;2.00;99.90
11136;DHT22;5622;50.840;4.948;2023-01-19T00:03:27;2.00;99.90
11136;DHT22;5622;50.840;4.948;2023-01-19T00:05:54;2.20;99.90
11136;DHT22;5622;50.840;4.948;2023-01-19T00:08:23;2.00;99.90
11136;DHT22;5622;50.840;4.948;2023-01-19T00:10:50;2.00;99.90
11136;DHT22;5622;50.840;4.948;2023-01-19T00:13:17;1.90;99.90
11136;DHT22;5622;50.840;4.948;2023-01-19T00:15:44;2.00;99.90
11136;DHT22;5622;50.840;4.948;2023-01-19T00:18:11;1.90;99.90
11136;DHT22;5622;50.840;4.948;2023-01-19T00:20:39;1.90;99.90
11136;DHT22;5622;50.840;4.948;2023-01-19T00:23:07;1.90;99.90
11136;DHT22;5622;50.840;4.948;2023-01-19T00:25:35;1.90;99.90
11136;DHT22;5622;50.840;4.948;2023-01-19T00:28:06;1.80;99.90
11136;DHT22;5622;50.840;4.948;2023-01-19T00:30:34;1.80;99.90
11136;DHT22;5622;50.840;4.948;2023-01-19T00:33:01;1.80;99.90
11136;DHT22;5622;50.840;4.948;2023-01-19T00:35:28;1.70;99.90
11136;DHT22;5622;50.840;4.948;2023-01-19T00:37:55;1.80;99.90
11136;DHT22;5622;50.840;4.948;2023-01-19T00:40:22;1.70;99.90
11136;DHT22;5622;50.840;4.948;2023-01-19T00:42:51;1.70;99.90
11136;DHT22;5622;50.840;4.948;2023-01-19T00:45:18;1.70;99.90
11136;DHT22;5622;50.840;4.948;2023-01-19T00:47:46;1.80;99.90
11136;DHT22;5622;50.840;4.948;2023-01-19T00:50:15;1.80;99.90
11136;DHT22;5622;50.840;4.948;2023-01-19T00:52:43;1.80;99.90
11136;DHT22;5622;50.840;4.948;2023-01-19T00:55:11;1.80;99.90
11136;DHT22;5622;50.840;4.948;2023-01-19T00:57:40;1.80;99.90
11136;DHT22;5622;50.840;4.948;2023-01-19T01:00:11;1.80;99.90
11136;DHT22;5622;50.840;4.948;2023-01-19T01:02:40;1.80;99.90
11136;DHT22;5622;50.840;4.948;2023-01-19T01:05:08;1.80;99.90
11136;DHT22;5622;50.840;4.948;2023-01-19T01:07:36;1.80;99.90
11136;DHT22;5622;50.840;4.948;2023-01-19T01:10:07;1.80;99.90
11136;DHT22;5622;50.840;4.948;2023-01-19T01:12:34;1.80;99.90
11136;DHT22;5622;50.840;4.948;2023-01-19T01:15:03;1.80;99.90
11136;DHT22;5622;50.840;4.948;2023-01-19T01:17:31;1.80;99.90
11136;DHT22;5622;50.840;4.948;2023-01-19T01:19:59;1.80;99.90
11136;DHT22;5622;50.840;4.948;2023-01-19T01:22:26;1.80;99.90
11136;DHT22;5622;50.840;4.948;2023-01-19T01:24:53;1.80;99.90
11136;DHT22;5622;50.840;4.948;2023-01-19T01:27:20;1.90;99.90
11136;DHT22;5622;50.840;4.948;2023-01-19T01:29:48;1.90;99.90
11136;DHT22;5622;50.840;4.948;2023-01-19T01:32:15;1.80;99.90
11136;DHT22;5622;50.840;4.948;2023-01-19T01:34:44;1.80;99.90
11136;DHT22;5622;50.840;4.948;2023-01-19T01:37:11;1.80;99.90
11136;DHT22;5622;50.840;4.948;2023-01-19T01:39:38;1.80;99.90
11136;DHT22;5622;50.840;4.948;2023-01-19T01:42:14;1.80;99.90
11136;DHT22;5622;50.840;4.948;2023-01-19T01:44:45;1.80;99.90
11136;DHT22;5622;50.840;4.948;2023-01-19T01:47:19;1.80;99.90
11136;DHT22;5622;50.840;4.948;2023-01-19T01:49:53;1.80;99.90
11136;DHT22;5622;50.840;4.948;2023-01-19T01:52:23;1.80;99.90
11136;DHT22;5622;50.840;4.948;2023-01-19T01:54:51;1.70;99.90
11136;DHT22;5622;50.840;4.948;2023-01-19T01:57:19;1.80;99.90
11136;DHT22;5622;50.840;4.948;2023-01-19T01:59:48;1.70;99.90
11136;DHT22;5622;50.840;4.948;2023-01-19T02:02:18;1.70;99.90
11136;DHT22;5622;50.840;4.948;2023-01-19T02:05:09;1.80;99.90
11136;DHT22;5622;50.840;4.948;2023-01-19T02:07:42;1.80;99.90
11136;DHT22;5622;50.840;4.948;2023-01-19T02:10:29;1.80;99.90
11136;DHT22;5622;50.840;4.948;2023-01-19T02:13:14;1.80;99.90
11136;DHT22;5622;50.840;4.948;2023-01-19T02:15:46;2.00;99.90
11136;DHT22;5622;50.840;4.948;2023-01-19T02:18:13;1.70;99.90
11136;DHT22;5622;50.840;4.948;2023-01-19T02:20:48;1.70;99.90
11136;DHT22;5622;50.840;4.948;2023-01-19T02:25:52;1.70;99.90
11136;DHT22;5622;50.840;4.948;2023-01-19T02:28:19;1.70;99.90
11136;DHT22;5622;50.840;4.948;2023-01-19T02:30:47;1.70;99.90
11136;DHT22;5622;50.840;4.948;2023-01-19T02:33:14;1.70;99.90
11136;DHT22;5622;50.840;4.948;2023-01-19T02:35:41;1.70;99.90
11136;DHT22;5622;50.840;4.948;2023-01-19T02:38:09;1.70;99.90
11136;DHT22;5622;50.840;4.948;2023-01-19T02:40:39;1.70;99.90
11136;DHT22;5622;50.840;4.948;2023-01-19T02:43:10;1.70;99.90
11136;DHT22;5622;50.840;4.948;2023-01-19T02:45:38;1.70;99.90
11136;DHT22;5622;50.840;4.948;2023-01-19T02:48:06;1.70;99.90
11136;DHT22;5622;50.840;4.948;2023-01-19T02:50:40;1.80;99.90
11136;DHT22;5622;50.840;4.948;2023-01-19T02:53:32;1.70;99.90
11136;DHT22;5622;50.840;4.948;2023-01-19T02:56:15;1.70;99.90
11136;DHT22;5622;50.840;4.948;2023-01-19T02:58:55;1.70;99.90
11136;DHT22;5622;50.840;4.948;2023-01-19T03:01:35;1.70;99.90
11136;DHT22;5622;50.840;4.948;2023-01-19T03:04:10;1.70;99.90
11136;DHT22;5622;50.840;4.948;2023-01-19T03:06:44;2.00;99.90
11136;DHT22;5622;50.840;4.948;2023-01-19T03:09:18;1.70;99.90
11136;DHT22;5622;50.840;4.948;2023-01-19T03:11:51;1.60;99.90
11136;DHT22;5622;50.840;4.948;2023-01-19T03:14:24;1.70;99.90
11136;DHT22;5622;50.840;4.948;2023-01-19T03:16:57;1.60;99.90
11136;DHT22;5622;50.840;4.948;2023-01-19T03:19:27;1.60;99.90
11136;DHT22;5622;50.840;4.948;2023-01-19T03:21:59;1.60;99.90
11136;DHT22;5622;50.840;4.948;2023-01-19T03:24:29;1.50;99.90
11136;DHT22;5622;50.840;4.948;2023-01-19T03:27:00;1.60;99.90
11136;DHT22;5622;50.840;4.948;2023-01-19T03:29:31;1.60;99.90
11136;DHT22;5622;50.840;4.948;2023-01-19T03:32:03;1.70;99.90
11136;DHT22;5622;50.840;4.948;2023-01-19T03:34:33;1.70;99.90
11136;DHT22;5622;50.840;4.948;2023-01-19T03:37:02;1.60;99.90
11136;DHT22;5622;50.840;4.948;2023-01-19T03:39:30;1.60;99.90
11136;DHT22;5622;50.840;4.948;2023-01-19T03:41:59;1.60;99.90
11136;DHT22;5622;50.840;4.948;2023-01-19T03:44:32;1.60;99.90
11136;DHT22;5622;50.840;4.948;2023-01-19T03:47:01;1.70;99.90
11136;DHT22;5622;50.840;4.948;2023-01-19T03:49:30;1.70;99.90
11136;DHT22;5622;50.840;4.948;2023-01-19T03:51:58;1.60;99.90
11136;DHT22;5622;50.840;4.948;2023-01-19T03:54:25;1.70;99.90
11136;DHT22;5622;50.840;4.948;2023-01-19T03:56:53;1.70;99.90
11136;DHT22;5622;50.840;4.948;2023-01-19T03:59:20;1.60;99.90
11136;DHT22;5622;50.840;4.948;2023-01-19T04:01:48;1.60;99.90
11136;DHT22;5622;50.840;4.948;2023-01-19T04:04:16;1.70;99.90
11136;DHT22;5622;50.840;4.948;2023-01-19T04:06:43;1.70;99.90
11136;DHT22;5622;50.840;4.948;2023-01-19T04:09:10;1.80;99.90
11136;DHT22;5622;50.840;4.948;2023-01-19T04:11:37;1.80;99.90
11136;DHT22;5622;50.840;4.948;2023-01-19T04:14:04;1.80;99.90
11136;DHT22;5622;50.840;4.948;2023-01-19T04:16:31;1.80;99.90
11136;DHT22;5622;50.840;4.948;2023-01-19T04:19:00;1.70;99.90
11136;DHT22;5622;50.840;4.948;2023-01-19T04:21:27;1.80;99.90
11136;DHT22;5622;50.840;4.948;2023-01-19T04:23:55;1.80;99.90
11136;DHT22;5622;50.840;4.948;2023-01-19T04:26:22;1.80;99.90
11136;DHT22;5622;50.840;4.948;2023-01-19T04:28:49;1.80;99.90
11136;DHT22;5622;50.840;4.948;2023-01-19T04:31:16;1.70;99.90
11136;DHT22;5622;50.840;4.948;2023-01-19T04:33:45;1.80;99.90
11136;DHT22;5622;50.840;4.948;2023-01-19T04:36:13;2.00;99.90
11136;DHT22;5622;50.840;4.948;2023-01-19T04:38:40;1.70;99.90
11136;DHT22;5622;50.840;4.948;2023-01-19T04:41:07;1.80;99.90
11136;DHT22;5622;50.840;4.948;2023-01-19T04:43:34;1.80;99.90
11136;DHT22;5622;50.840;4.948;2023-01-19T04:46:02;1.80;99.90
11136;DHT22;5622;50.840;4.948;2023-01-19T04:48:29;1.90;99.90
11136;DHT22;5622;50.840;4.948;2023-01-19T04:50:56;1.80;99.90
11136;DHT22;5622;50.840;4.948;2023-01-19T04:53:25;1.80;99.90
11136;DHT22;5622;50.840;4.948;2023-01-19T04:55:53;1.80;99.90
11136;DHT22;5622;50.840;4.948;2023-01-19T04:58:20;1.80;99.90
11136;DHT22;5622;50.840;4.948;2023-01-19T05:00:47;1.70;99.90
11136;DHT22;5622;50.840;4.948;2023-01-19T05:03:15;1.70;99.90
11136;DHT22;5622;50.840;4.948;2023-01-19T05:05:43;1.70;99.90
11136;DHT22;5622;50.840;4.948;2023-01-19T05:08:11;1.70;99.90
11136;DHT22;5622;50.840;4.948;2023-01-19T05:10:39;1.70;99.90
11136;DHT22;5622;50.840;4.948;2023-01-19T05:13:06;1.70;99.90
11136;DHT22;5622;50.840;4.948;2023-01-19T05:15:34;1.70;99.90
11136;DHT22;5622;50.840;4.948;2023-01-19T05:18:01;1.70;99.90
11136;DHT22;5622;50.840;4.948;2023-01-19T05:20:28;1.70;99.90
11136;DHT22;5622;50.840;4.948;2023-01-19T05:22:55;1.70;99.90
11136;DHT22;5622;50.840;4.948;2023-01-19T05:25:22;1.70;99.90
11136;DHT22;5622;50.840;4.948;2023-01-19T05:27:51;2.10;99.90
11136;DHT22;5622;50.840;4.948;2023-01-19T05:30:18;1.70;99.90
11136;DHT22;5622;50.840;4.948;2023-01-19T05:32:45;1.70;99.90
11136;DHT22;5622;50.840;4.948;2023-01-19T05:35:12;1.70;99.90
11136;DHT22;5622;50.840;4.948;2023-01-19T05:37:41;1.70;99.90
11136;DHT22;5622;50.840;4.948;2023-01-19T05:40:09;1.70;99.90
11136;DHT22;5622;50.840;4.948;2023-01-19T05:42:37;1.70;99.90
11136;DHT22;5622;50.840;4.948;2023-01-19T05:45:07;1.70;99.90
11136;DHT22;5622;50.840;4.948;2023-01-19T05:47:34;1.70;99.90
11136;DHT22;5622;50.840;4.948;2023-01-19T05:50:02;1.30;99.90
11136;DHT22;5622;50.840;4.948;2023-01-19T05:52:29;1.70;99.90
11136;DHT22;5622;50.840;4.948;2023-01-19T05:54:56;1.80;99.90
11136;DHT22;5622;50.840;4.948;2023-01-19T05:57:23;1.80;99.90
11136;DHT22;5622;50.840;4.948;2023-01-19T05:59:51;1.80;99.90
11136;DHT22;5622;50.840;4.948;2023-01-19T06:02:19;1.70;99.90
11136;DHT22;5622;50.840;4.948;2023-01-19T06:04:53;1.70;99.90
11136;DHT22;5622;50.840;4.948;2023-01-19T06:07:20;1.80;99.90
11136;DHT22;5622;50.840;4.948;2023-01-19T06:09:47;1.80;99.90
11136;DHT22;5622;50.840;4.948;2023-01-19T06:12:14;1.80;99.90
11136;DHT22;5622;50.840;4.948;2023-01-19T06:14:41;1.80;99.90
11136;DHT22;5622;50.840;4.948;2023-01-19T06:17:08;1.70;99.90
11136;DHT22;5622;50.840;4.948;2023-01-19T06:19:37;1.80;99.90
11136;DHT22;5622;50.840;4.948;2023-01-19T06:22:04;1.70;99.90
11136;DHT22;5622;50.840;4.948;2023-01-19T06:24:31;1.70;99.90
11136;DHT22;5622;50.840;4.948;2023-01-19T06:26:59;1.70;99.90
11136;DHT22;5622;50.840;4.948;2023-01-19T06:29:26;1.70;99.90
11136;DHT22;5622;50.840;4.948;2023-01-19T06:31:53;1.70;99.90
11136;DHT22;5622;50.840;4.948;2023-01-19T06:34:21;1.80;99.90
11136;DHT22;5622;50.840;4.948;2023-01-19T06:36:53;1.70;99.90
11136;DHT22;5622;50.840;4.948;2023-01-19T06:39:20;1.90;99.90
11136;DHT22;5622;50.840;4.948;2023-01-19T06:41:47;1.70;99.90
11136;DHT22;5622;50.840;4.948;2023-01-19T06:44:14;1.70;99.90
11136;DHT22;5622;50.840;4.948;2023-01-19T06:46:42;1.80;99.90
11136;DHT22;5622;50.840;4.948;2023-01-19T06:49:09;1.70;99.90
11136;DHT22;5622;50.840;4.948;2023-01-19T06:51:36;1.70;99.90
11136;DHT22;5622;50.840;4.948;2023-01-19T06:54:05;1.70;99.90
11136;DHT22;5622;50.840;4.948;2023-01-19T06:56:32;1.80;99.90
11136;DHT22;5622;50.840;4.948;2023-01-19T06:58:59;1.70;99.90
11136;DHT22;5622;50.840;4.948;2023-01-19T07:01:26;1.70;99.90
11136;DHT22;5622;50.840;4.948;2023-01-19T07:03:53;1.70;99.90
11136;DHT22;5622;50.840;4.948;2023-01-19T07:06:20;1.70;99.90
11136;DHT22;5622;50.840;4.948;2023-01-19T07:08:47;1.70;99.90
11136;DHT22;5622;50.840;4.948;2023-01-19T07:11:16;1.70;99.90
11136;DHT22;5622;50.840;4.948;2023-01-19T07:13:43;1.70;99.90
11136;DHT22;5622;50.840;4.948;2023-01-19T07:16:16;1.70;99.90
11136;DHT22;5622;50.840;4.948;2023-01-19T07:18:43;1.70;99.90
11136;DHT22;5622;50.840;4.948;2023-01-19T07:21:10;2.10;99.90
11136;DHT22;5622;50.840;4.948;2023-01-19T07:23:37;1.70;99.90
11136;DHT22;5622;50.840;4.948;2023-01-19T07:26:05;1.70;99.90
11136;DHT22;5622;50.840;4.948;2023-01-19T07:28:33;1.70;99.90
11136;DHT22;5622;50.840;4.948;2023-01-19T07:31:01;1.70;99.90
11136;DHT22;5622;50.840;4.948;2023-01-19T07:33:29;2.00;99.90
11136;DHT22;5622;50.840;4.948;2023-01-19T07:35:56;1.60;99.90
11136;DHT22;5622;50.840;4.948;2023-01-19T07:38:23;1.60;99.90
11136;DHT22;5622;50.840;4.948;2023-01-19T07:40:50;1.60;99.90
11136;DHT22;5622;50.840;4.948;2023-01-19T07:43:17;1.70;99.90
11136;DHT22;5622;50.840;4.948;2023-01-19T07:45:46;1.70;99.90
11136;DHT22;5622;50.840;4.948;2023-01-19T07:48:13;1.70;99.90
11136;DHT22;5622;50.840;4.948;2023-01-19T07:50:41;2.00;99.90
11136;DHT22;5622;50.840;4.948;2023-01-19T07:53:08;1.70;99.90
11136;DHT22;5622;50.840;4.948;2023-01-19T07:55:36;1.90;99.90
11136;DHT22;5622;50.840;4.948;2023-01-19T07:58:03;1.70;99.90
11136;DHT22;5622;50.840;4.948;2023-01-19T08:00:32;1.70;99.90
11136;DHT22;5622;50.840;4.948;2023-01-19T08:03:01;1.80;99.90
11136;DHT22;5622;50.840;4.948;2023-01-19T08:05:29;1.80;99.90
11136;DHT22;5622;50.840;4.948;2023-01-19T08:07:57;1.80;99.90
11136;DHT22;5622;50.840;4.948;2023-01-19T08:10:26;1.80;99.90
11136;DHT22;5622;50.840;4.948;2023-01-19T08:12:54;1.70;99.90
11136;DHT22;5622;50.840;4.948;2023-01-19T08:15:22;1.80;99.90
11136;DHT22;5622;50.840;4.948;2023-01-19T08:17:56;1.80;99.90
11136;DHT22;5622;50.840;4.948;2023-01-19T08:20:25;1.80;99.90
11136;DHT22;5622;50.840;4.948;2023-01-19T08:22:53;1.90;99.90
11136;DHT22;5622;50.840;4.948;2023-01-19T08:25:25;1.90;99.90
11136;DHT22;5622;50.840;4.948;2023-01-19T08:27:54;1.80;99.90
11136;DHT22;5622;50.840;4.948;2023-01-19T08:30:21;1.90;99.90
11136;DHT22;5622;50.840;4.948;2023-01-19T08:32:51;1.90;99.90
11136;DHT22;5622;50.840;4.948;2023-01-19T08:35:18;1.90;99.90
11136;DHT22;5622;50.840;4.948;2023-01-19T08:37:48;1.90;99.90
11136;DHT22;5622;50.840;4.948;2023-01-19T08:40:15;1.90;99.90
11136;DHT22;5622;50.840;4.948;2023-01-19T08:42:44;2.00;99.90
11136;DHT22;5622;50.840;4.948;2023-01-19T08:45:11;2.00;99.90
11136;DHT22;5622;50.840;4.948;2023-01-19T08:47:38;2.00;99.90
11136;DHT22;5622;50.840;4.948;2023-01-19T08:50:06;2.00;99.90
11136;DHT22;5622;50.840;4.948;2023-01-19T08:52:35;2.00;99.90
11136;DHT22;5622;50.840;4.948;2023-01-19T08:55:05;2.10;99.90
11136;DHT22;5622;50.840;4.948;2023-01-19T08:57:32;2.10;99.90
11136;DHT22;5622;50.840;4.948;2023-01-19T08:59:59;2.40;99.90
11136;DHT22;5622;50.840;4.948;2023-01-19T09:02:26;2.10;99.90
11136;DHT22;5622;50.840;4.948;2023-01-19T09:04:54;2.10;99.90
11136;DHT22;5622;50.840;4.948;2023-01-19T09:07:21;2.20;99.90
11136;DHT22;5622;50.840;4.948;2023-01-19T09:09:48;2.30;99.90
11136;DHT22;5622;50.840;4.948;2023-01-19T09:12:16;2.30;99.90
11136;DHT22;5622;50.840;4.948;2023-01-19T09:14:44;2.40;99.90
11136;DHT22;5622;50.840;4.948;2023-01-19T09:17:11;2.50;99.90
11136;DHT22;5622;50.840;4.948;2023-01-19T09:19:39;2.60;99.90
11136;DHT22;5622;50.840;4.948;2023-01-19T09:22:06;2.60;99.90
11136;DHT22;5622;50.840;4.948;2023-01-19T09:24:33;2.70;99.90
11136;DHT22;5622;50.840;4.948;2023-01-19T09:27:01;2.70;99.90
11136;DHT22;5622;50.840;4.948;2023-01-19T09:29:30;2.60;99.90
11136;DHT22;5622;50.840;4.948;2023-01-19T09:31:57;2.60;99.90
11136;DHT22;5622;50.840;4.948;2023-01-19T09:34:24;2.60;99.90
11136;DHT22;5622;50.840;4.948;2023-01-19T09:36:51;2.70;99.90
11136;DHT22;5622;50.840;4.948;2023-01-19T09:39:19;2.70;99.90
11136;DHT22;5622;50.840;4.948;2023-01-19T09:41:49;2.60;99.90
11136;DHT22;5622;50.840;4.948;2023-01-19T09:44:24;2.60;99.90
11136;DHT22;5622;50.840;4.948;2023-01-19T09:46:55;2.90;99.90
11136;DHT22;5622;50.840;4.948;2023-01-19T09:49:27;2.70;99.90
11136;DHT22;5622;50.840;4.948;2023-01-19T09:51:57;2.70;99.90
11136;DHT22;5622;50.840;4.948;2023-01-19T09:54:30;2.80;99.90
11136;DHT22;5622;50.840;4.948;2023-01-19T09:57:00;2.70;99.90
11136;DHT22;5622;50.840;4.948;2023-01-19T09:59:29;3.00;99.90
11136;DHT22;5622;50.840;4.948;2023-01-19T10:02:17;2.80;99.90
11136;DHT22;5622;50.840;4.948;2023-01-19T10:04:50;2.70;99.90
11136;DHT22;5622;50.840;4.948;2023-01-19T10:07:31;2.70;99.90
11136;DHT22;5622;50.840;4.948;2023-01-19T10:10:15;2.80;99.90
11136;DHT22;5622;50.840;4.948;2023-01-19T10:12:51;2.80;99.90
11136;DHT22;5622;50.840;4.948;2023-01-19T10:15:29;2.90;99.90
11136;DHT22;5622;50.840;4.948;2023-01-19T10:18:12;2.80;99.90
11136;DHT22;5622;50.840;4.948;2023-01-19T10:20:43;2.90;99.90
11136;DHT22;5622;50.840;4.948;2023-01-19T10:23:24;2.80;99.90
11136;DHT22;5622;50.840;4.948;2023-01-19T10:25:53;2.80;99.90
11136;DHT22;5622;50.840;4.948;2023-01-19T10:28:23;2.90;99.90
11136;DHT22;5622;50.840;4.948;2023-01-19T10:30:53;2.90;99.90
11136;DHT22;5622;50.840;4.948;2023-01-19T10:33:22;2.90;99.90
11136;DHT22;5622;50.840;4.948;2023-01-19T10:35:49;2.90;99.90
11136;DHT22;5622;50.840;4.948;2023-01-19T10:38:16;2.80;99.90
11136;DHT22;5622;50.840;4.948;2023-01-19T10:40:53;2.80;99.90
11136;DHT22;5622;50.840;4.948;2023-01-19T10:43:34;2.80;99.90
11136;DHT22;5622;50.840;4.948;2023-01-19T10:46:05;2.70;99.90
11136;DHT22;5622;50.840;4.948;2023-01-19T10:48:38;2.70;99.90
11136;DHT22;5622;50.840;4.948;2023-01-19T10:51:08;2.80;99.90
11136;DHT22;5622;50.840;4.948;2023-01-19T10:53:36;2.80;99.90
11136;DHT22;5622;50.840;4.948;2023-01-19T10:56:15;3.10;99.90
11136;DHT22;5622;50.840;4.948;2023-01-19T10:58:43;2.90;99.90
11136;DHT22;5622;50.840;4.948;2023-01-19T11:01:15;2.90;99.90
11136;DHT22;5622;50.840;4.948;2023-01-19T11:03:45;2.80;99.90
11136;DHT22;5622;50.840;4.948;2023-01-19T11:06:20;2.90;99.90
11136;DHT22;5622;50.840;4.948;2023-01-19T11:08:49;3.00;99.90
11136;DHT22;5622;50.840;4.948;2023-01-19T11:11:17;3.00;99.90
11136;DHT22;5622;50.840;4.948;2023-01-19T11:14:02;3.00;99.90
11136;DHT22;5622;50.840;4.948;2023-01-19T11:16:31;3.00;99.90
11136;DHT22;5622;50.840;4.948;2023-01-19T11:19:01;3.10;99.90
11136;DHT22;5622;50.840;4.948;2023-01-19T11:21:29;3.10;99.90
11136;DHT22;5622;50.840;4.948;2023-01-19T11:23:59;3.10;99.90
11136;DHT22;5622;50.840;4.948;2023-01-19T11:26:33;3.10;99.90
11136;DHT22;5622;50.840;4.948;2023-01-19T11:29:02;3.00;99.90
11136;DHT22;5622;50.840;4.948;2023-01-19T11:31:32;3.00;99.90
11136;DHT22;5622;50.840;4.948;2023-01-19T11:34:03;3.00;99.90
11136;DHT22;5622;50.840;4.948;2023-01-19T11:36:33;3.00;99.90
11136;DHT22;5622;50.840;4.948;2023-01-19T11:39:19;3.10;99.90
11136;DHT22;5622;50.840;4.948;2023-01-19T11:41:50;3.10;99.90
11136;DHT22;5622;50.840;4.948;2023-01-19T11:44:21;3.10;99.90
11136;DHT22;5622;50.840;4.948;2023-01-19T11:46:53;3.20;99.90
11136;DHT22;5622;50.840;4.948;2023-01-19T11:49:28;3.20;99.90
11136;DHT22;5622;50.840;4.948;2023-01-19T11:52:03;3.30;99.90
11136;DHT22;5622;50.840;4.948;2023-01-19T11:54:34;3.40;99.90
11136;DHT22;5622;50.840;4.948;2023-01-19T11:57:05;3.50;99.90
11136;DHT22;5622;50.840;4.948;2023-01-19T11:59:36;3.50;99.90
11136;DHT22;5622;50.840;4.948;2023-01-19T12:02:13;3.60;99.90
11136;DHT22;5622;50.840;4.948;2023-01-19T12:04:45;3.60;99.90
11136;DHT22;5622;50.840;4.948;2023-01-19T12:07:14;3.70;99.90
11136;DHT22;5622;50.840;4.948;2023-01-19T12:09:47;3.80;99.90
11136;DHT22;5622;50.840;4.948;2023-01-19T12:12:25;3.90;99.90
11136;DHT22;5622;50.840;4.948;2023-01-19T12:14:56;3.90;99.90
11136;DHT22;5622;50.840;4.948;2023-01-19T12:17:26;3.90;99.90
11136;DHT22;5622;50.840;4.948;2023-01-19T12:20:04;3.90;99.90
11136;DHT22;5622;50.840;4.948;2023-01-19T12:22:39;3.90;99.90
11136;DHT22;5622;50.840;4.948;2023-01-19T12:25:16;3.90;99.90
11136;DHT22;5622;50.840;4.948;2023-01-19T12:27:45;4.10;99.90
11136;DHT22;5622;50.840;4.948;2023-01-19T12:30:17;3.90;99.90
11136;DHT22;5622;50.840;4.948;2023-01-19T12:32:45;4.00;99.90
11136;DHT22;5622;50.840;4.948;2023-01-19T12:35:54;4.00;99.90
11136;DHT22;5622;50.840;4.948;2023-01-19T12:38:31;4.00;99.90
11136;DHT22;5622;50.840;4.948;2023-01-19T12:41:21;4.00;99.90
11136;DHT22;5622;50.840;4.948;2023-01-19T12:44:18;4.10;99.90
11136;DHT22;5622;50.840;4.948;2023-01-19T12:46:47;4.00;99.90
11136;DHT22;5622;50.840;4.948;2023-01-19T12:49:22;4.00;99.90
11136;DHT22;5622;50.840;4.948;2023-01-19T12:51:54;4.00;99.90
11136;DHT22;5622;50.840;4.948;2023-01-19T12:54:35;4.10;99.90
11136;DHT22;5622;50.840;4.948;2023-01-19T12:57:07;4.10;99.90
11136;DHT22;5622;50.840;4.948;2023-01-19T12:59:35;4.10;99.90
11136;DHT22;5622;50.840;4.948;2023-01-19T13:05:23;4.10;99.90
11136;DHT22;5622;50.840;4.948;2023-01-19T13:08:22;4.10;99.90
11136;DHT22;5622;50.840;4.948;2023-01-19T13:11:19;4.20;99.90
11136;DHT22;5622;50.840;4.948;2023-01-19T13:17:22;4.20;99.90
11136;DHT22;5622;50.840;4.948;2023-01-19T13:20:02;4.30;99.90
11136;DHT22;5622;50.840;4.948;2023-01-19T13:26:01;4.30;99.90
11136;DHT22;5622;50.840;4.948;2023-01-19T13:28:37;4.40;99.90
11136;DHT22;5622;50.840;4.948;2023-01-19T13:31:05;4.40;99.90
11136;DHT22;5622;50.840;4.948;2023-01-19T13:33:41;4.40;99.90
11136;DHT22;5622;50.840;4.948;2023-01-19T13:36:23;4.40;99.90
11136;DHT22;5622;50.840;4.948;2023-01-19T13:38:52;4.30;99.90
11136;DHT22;5622;50.840;4.948;2023-01-19T13:41:24;4.30;99.90
11136;DHT22;5622;50.840;4.948;2023-01-19T13:43:57;4.30;99.90
11136;DHT22;5622;50.840;4.948;2023-01-19T13:46:26;4.40;99.90
11136;DHT22;5622;50.840;4.948;2023-01-19T13:48:56;4.40;99.90
11136;DHT22;5622;50.840;4.948;2023-01-19T13:51:24;4.40;99.90
11136;DHT22;5622;50.840;4.948;2023-01-19T13:53:55;4.50;99.90
11136;DHT22;5622;50.840;4.948;2023-01-19T13:56:25;4.50;99.90
11136;DHT22;5622;50.840;4.948;2023-01-19T13:58:57;4.60;99.90
11136;DHT22;5622;50.840;4.948;2023-01-19T14:01:25;4.60;99.90
11136;DHT22;5622;50.840;4.948;2023-01-19T14:03:53;4.60;99.90
11136;DHT22;5622;50.840;4.948;2023-01-19T14:06:22;4.60;99.90
11136;DHT22;5622;50.840;4.948;2023-01-19T14:09:14;4.70;99.90
11136;DHT22;5622;50.840;4.948;2023-01-19T14:11:45;4.70;99.90
11136;DHT22;5622;50.840;4.948;2023-01-19T14:14:26;4.70;99.90
11136;DHT22;5622;50.840;4.948;2023-01-19T14:16:53;4.70;99.90
11136;DHT22;5622;50.840;4.948;2023-01-19T14:19:21;4.70;99.90
11136;DHT22;5622;50.840;4.948;2023-01-19T14:21:57;4.70;99.90
11136;DHT22;5622;50.840;4.948;2023-01-19T14:24:24;4.80;99.90
11136;DHT22;5622;50.840;4.948;2023-01-19T14:27:14;4.70;99.90
11136;DHT22;5622;50.840;4.948;2023-01-19T14:29:43;4.70;99.90
11136;DHT22;5622;50.840;4.948;2023-01-19T14:32:14;4.80;99.90
11136;DHT22;5622;50.840;4.948;2023-01-19T14:34:43;4.70;99.90
11136;DHT22;5622;50.840;4.948;2023-01-19T14:37:25;4.70;99.90
11136;DHT22;5622;50.840;4.948;2023-01-19T14:39:56;4.70;99.90
11136;DHT22;5622;50.840;4.948;2023-01-19T14:42:27;4.70;99.90
11136;DHT22;5622;50.840;4.948;2023-01-19T14:44:57;4.70;99.90
11136;DHT22;5622;50.840;4.948;2023-01-19T14:47:33;4.70;99.90
11136;DHT22;5622;50.840;4.948;2023-01-19T14:50:05;4.60;99.90
11136;DHT22;5622;50.840;4.948;2023-01-19T14:52:37;4.60;99.90
11136;DHT22;5622;50.840;4.948;2023-01-19T14:55:16;4.60;99.90
11136;DHT22;5622;50.840;4.948;2023-01-19T14:57:55;4.50;99.90
11136;DHT22;5622;50.840;4.948;2023-01-19T15:00:23;4.50;99.90
11136;DHT22;5622;50.840;4.948;2023-01-19T15:02:51;4.40;99.90
11136;DHT22;5622;50.840;4.948;2023-01-19T15:05:19;4.40;99.90
11136;DHT22;5622;50.840;4.948;2023-01-19T15:07:46;4.30;99.90
11136;DHT22;5622;50.840;4.948;2023-01-19T15:10:17;4.30;99.90
11136;DHT22;5622;50.840;4.948;2023-01-19T15:12:49;4.30;99.90
11136;DHT22;5622;50.840;4.948;2023-01-19T15:15:20;4.30;99.90
11136;DHT22;5622;50.840;4.948;2023-01-19T15:17:50;4.20;99.90
11136;DHT22;5622;50.840;4.948;2023-01-19T15:20:19;4.20;99.90
11136;DHT22;5622;50.840;4.948;2023-01-19T15:22:47;4.20;99.90
11136;DHT22;5622;50.840;4.948;2023-01-19T15:25:15;4.20;99.90
11136;DHT22;5622;50.840;4.948;2023-01-19T15:27:44;4.20;99.90
11136;DHT22;5622;50.840;4.948;2023-01-19T15:30:19;4.20;99.90
11136;DHT22;5622;50.840;4.948;2023-01-19T15:32:46;4.10;99.90
11136;DHT22;5622;50.840;4.948;2023-01-19T15:35:15;4.10;99.90
11136;DHT22;5622;50.840;4.948;2023-01-19T15:37:43;4.10;99.90
11136;DHT22;5622;50.840;4.948;2023-01-19T15:40:11;4.10;99.90
11136;DHT22;5622;50.840;4.948;2023-01-19T15:42:39;4.10;99.90
11136;DHT22;5622;50.840;4.948;2023-01-19T15:45:31;4.00;99.90
11136;DHT22;5622;50.840;4.948;2023-01-19T15:48:00;4.00;99.90
11136;DHT22;5622;50.840;4.948;2023-01-19T15:50:28;4.00;99.90
11136;DHT22;5622;50.840;4.948;2023-01-19T15:52:56;3.90;99.90
11136;DHT22;5622;50.840;4.948;2023-01-19T15:55:23;3.80;99.90
11136;DHT22;5622;50.840;4.948;2023-01-19T15:57:51;3.90;99.90
11136;DHT22;5622;50.840;4.948;2023-01-19T16:00:18;3.80;99.90
11136;DHT22;5622;50.840;4.948;2023-01-19T16:02:47;3.80;99.90
11136;DHT22;5622;50.840;4.948;2023-01-19T16:05:16;3.80;99.90
11136;DHT22;5622;50.840;4.948;2023-01-19T16:07:43;3.80;99.90
11136;DHT22;5622;50.840;4.948;2023-01-19T16:10:10;3.80;99.90
11136;DHT22;5622;50.840;4.948;2023-01-19T16:12:41;3.90;99.90
11136;DHT22;5622;50.840;4.948;2023-01-19T16:15:09;3.90;99.90
11136;DHT22;5622;50.840;4.948;2023-01-19T16:17:36;3.90;99.90
11136;DHT22;5622;50.840;4.948;2023-01-19T16:20:07;3.90;99.90
11136;DHT22;5622;50.840;4.948;2023-01-19T16:22:35;4.00;99.90
11136;DHT22;5622;50.840;4.948;2023-01-19T16:25:03;4.00;99.90
11136;DHT22;5622;50.840;4.948;2023-01-19T16:27:30;4.00;99.90
11136;DHT22;5622;50.840;4.948;2023-01-19T16:29:57;3.90;99.90
11136;DHT22;5622;50.840;4.948;2023-01-19T16:32:30;4.00;99.90
11136;DHT22;5622;50.840;4.948;2023-01-19T16:34:57;3.90;99.90